Time;durP1;ratioP1;P1;durP2;ratioP2;P2;SDS_P1;SDS_P2;PMS_P1;PMS_P2;Temp;Humidity;BMP_temperature;BMP_pressure;BME280_temperature;BME280_humidity;BME280_pressure;Samples;Min_cycle;Max_cycle;Signal;HPM_P1;HPM_P2
2021/12/13 00:00:25;;;;;;;14.93;3.25;;;;;;;9.65;95.62;102375.59;5079696;28;20028;-41
2021/12/13 00:03:04;;;;;;;15.77;2.55;;;;;;;9.66;95.11;102374.63;5071576;28;20495;-42
2021/12/13 00:05:35;;;;;;;11.05;2.80;;;;;;;9.64;95.02;102373.91;5071478;28;20031;-41
2021/12/13 00:08:06;;;;;;;11.68;2.90;;;;;;;9.64;94.83;102373.06;5071813;28;20029;-41
2021/12/13 00:10:50;;;;;;;13.95;3.20;;;;;;;9.62;94.68;102373.19;5074187;28;20115;-42
2021/12/13 00:13:28;;;;;;;20.30;3.30;;;;;;;9.60;94.93;102374.31;5074866;28;20063;-42
2021/12/13 00:15:59;;;;;;;16.90;3.47;;;;;;;9.57;94.51;102371.91;5074852;28;20413;-42
2021/12/13 00:18:31;;;;;;;12.73;3.85;;;;;;;9.56;94.19;102372.91;5074802;28;20395;-41
2021/12/13 00:21:12;;;;;;;15.25;3.13;;;;;;;9.54;93.82;102362.28;5076123;28;20051;-41
2021/12/13 00:23:51;;;;;;;15.00;3.38;;;;;;;9.50;94.21;102363.53;5074717;28;20086;-42
2021/12/13 00:26:25;;;;;;;9.85;3.13;;;;;;;9.44;94.40;102370.31;5074610;28;20632;-41
2021/12/13 00:28:50;;;;;;;16.45;2.97;;;;;;;9.43;94.35;102374.00;5075997;28;20108;-41
2021/12/13 00:31:26;;;;;;;14.50;3.53;;;;;;;9.41;94.27;102372.44;5081555;28;20555;-41
2021/12/13 00:34:29;;;;;;;15.98;2.88;;;;;;;9.40;94.32;102379.66;5074341;28;20054;-42
2021/12/13 00:37:05;;;;;;;13.95;2.45;;;;;;;9.40;93.83;102379.66;5055251;28;20048;-41
2021/12/13 00:39:55;;;;;;;11.85;2.85;;;;;;;9.37;94.19;102371.84;5094725;28;20093;-41
2021/12/13 00:42:23;;;;;;;9.90;2.33;;;;;;;9.37;93.98;102377.22;5077705;28;20383;-42
2021/12/13 00:44:53;;;;;;;10.20;2.45;;;;;;;9.38;94.49;102376.22;5074025;28;20041;-41
2021/12/13 00:47:24;;;;;;;7.97;2.15;;;;;;;9.38;93.95;102372.72;5074191;28;20035;-42
2021/12/13 00:49:54;;;;;;;8.90;2.28;;;;;;;9.39;93.49;102377.94;5074300;28;20036;-42
2021/12/13 00:52:19;;;;;;;6.50;1.60;;;;;;;9.42;93.40;102380.34;5092785;28;20391;-41
2021/12/13 00:54:46;;;;;;;11.45;1.88;;;;;;;9.43;93.15;102378.53;5093135;28;20020;-41
2021/12/13 00:57:33;;;;;;;11.48;2.05;;;;;;;9.43;93.28;102371.31;5092942;28;20031;-42
2021/12/13 01:00:04;;;;;;;8.73;1.90;;;;;;;9.44;93.43;102378.38;5083482;28;20036;-41
2021/12/13 01:02:42;;;;;;;8.57;1.92;;;;;;;9.44;93.28;102390.97;5093809;28;20489;-41
2021/12/13 01:05:45;;;;;;;11.20;2.10;;;;;;;9.49;93.11;102390.56;5093925;28;20032;-41
2021/12/13 01:08:21;;;;;;;16.80;2.10;;;;;;;9.45;92.80;102396.22;5053703;28;20033;-41
2021/12/13 01:10:47;;;;;;;9.80;2.38;;;;;;;9.50;92.87;102384.19;5063181;28;20110;-41
2021/12/13 01:13:21;;;;;;;8.95;1.85;;;;;;;9.50;92.76;102384.19;5094158;28;20147;-41
2021/12/13 01:15:58;;;;;;;16.63;2.30;;;;;;;9.49;92.75;102382.50;5093777;28;20100;-42
2021/12/13 01:18:45;;;;;;;8.93;2.38;;;;;;;9.48;92.99;102386.16;5093221;28;20028;-41
2021/12/13 01:21:28;;;;;;;7.40;2.00;;;;;;;9.48;92.70;102386.16;5083233;28;20519;-41
2021/12/13 01:24:03;;;;;;;9.93;2.28;;;;;;;9.47;92.81;102384.47;5073782;28;20077;-41
2021/12/13 01:26:38;;;;;;;8.15;1.92;;;;;;;9.46;92.53;102394.38;5073463;28;20028;-41
2021/12/13 01:29:18;;;;;;;8.35;2.20;;;;;;;9.44;92.57;102389.13;5076482;28;20590;-41
2021/12/13 01:31:53;;;;;;;7.63;2.03;;;;;;;9.44;92.10;102394.50;5078728;28;20036;-41
2021/12/13 01:34:20;;;;;;;5.28;2.17;;;;;;;9.48;91.81;102391.53;5073278;28;20480;-42
2021/12/13 01:37:01;;;;;;;6.90;2.40;;;;;;;9.48;91.90;102407.66;5089789;28;20791;-41
2021/12/13 01:39:29;;;;;;;4.05;2.00;;;;;;;9.48;91.87;102392.41;5093774;28;20388;-41
2021/12/13 01:42:12;;;;;;;7.10;2.30;;;;;;;9.48;92.07;102396.91;5076004;28;20484;-41
2021/12/13 01:44:42;;;;;;;8.73;2.75;;;;;;;9.47;91.93;102403.28;5073129;28;20513;-41
2021/12/13 01:47:12;;;;;;;11.70;2.58;;;;;;;9.45;91.69;102396.22;5073196;28;20039;-41
2021/12/13 01:49:41;;;;;;;14.13;3.40;;;;;;;9.48;92.13;102402.28;5073605;28;20033;-41
2021/12/13 01:52:33;;;;;;;8.23;2.70;;;;;;;9.48;91.98;102403.16;5093117;28;20058;-41
2021/12/13 01:55:05;;;;;;;11.98;2.70;;;;;;;9.47;91.85;102409.50;5093324;28;20025;-40
2021/12/13 02:01:09;;;;;;;9.60;3.30;;;;;;;9.47;91.80;102411.34;5030279;28;20505;-41
2021/12/13 02:03:45;;;;;;;13.00;3.25;;;;;;;9.48;91.63;102407.66;5030669;28;20089;-40
2021/12/13 02:06:13;;;;;;;9.57;3.63;;;;;;;9.45;92.23;102408.78;5077179;28;20036;-42
2021/12/13 02:08:38;;;;;;;9.57;3.03;;;;;;;9.43;92.03;102408.94;5093027;28;20055;-43
2021/12/13 02:11:04;;;;;;;10.55;4.05;;;;;;;9.41;91.90;102408.19;5076206;28;20071;-41
2021/12/13 02:13:41;;;;;;;12.52;4.43;;;;;;;9.42;92.39;102409.91;5071430;28;20033;-41
2021/12/13 02:18:54;;;;;;;8.25;4.20;;;;;;;9.41;92.00;102412.72;5072710;28;20059;-41
2021/12/13 02:21:29;;;;;;;10.93;4.30;;;;;;;9.36;92.43;102414.97;5090677;28;20077;-41
2021/12/13 02:23:59;;;;;;;20.00;4.85;;;;;;;9.36;92.17;102415.81;5075615;28;20112;-41
2021/12/13 02:26:27;;;;;;;10.05;4.75;;;;;;;9.36;92.53;102410.44;5072736;28;20029;-41
2021/12/13 02:29:03;;;;;;;11.05;4.78;;;;;;;9.41;92.49;102416.25;5073823;28;20464;-42
2021/12/13 02:31:33;;;;;;;9.45;4.70;;;;;;;9.37;92.11;102414.84;5092186;28;20031;-42
2021/12/13 02:34:05;;;;;;;12.13;5.15;;;;;;;9.37;92.13;102416.66;5093041;28;20376;-41
2021/12/13 02:36:43;;;;;;;14.32;5.60;;;;;;;9.40;92.33;102417.25;5092819;28;20487;-41
2021/12/13 02:39:17;;;;;;;12.38;6.22;;;;;;;9.38;92.06;102421.06;5090616;28;20024;-41
2021/12/13 02:41:43;;;;;;;12.27;6.07;;;;;;;9.38;92.42;102416.53;5072876;28;20497;-41
2021/12/13 02:44:31;;;;;;;16.38;6.20;;;;;;;9.37;91.94;102419.34;5072298;28;20045;-41
2021/12/13 02:47:00;;;;;;;12.18;6.90;;;;;;;9.36;92.18;102423.88;5072557;28;20025;-41
2021/12/13 02:49:26;;;;;;;16.45;7.38;;;;;;;9.35;91.87;102424.88;5073248;28;20021;-48
2021/12/13 02:51:56;;;;;;;14.07;7.45;;;;;;;9.37;91.93;102420.22;5072378;28;20028;-41
2021/12/13 02:54:22;;;;;;;13.13;6.97;;;;;;;9.35;92.40;102424.88;5072767;28;20125;-41
2021/12/13 02:56:54;;;;;;;14.57;7.53;;;;;;;9.34;92.31;102420.47;5072791;28;20032;-41
2021/12/13 02:59:23;;;;;;;16.10;7.97;;;;;;;9.37;92.41;102414.84;5077805;28;20027;-41
2021/12/13 03:01:57;;;;;;;21.45;8.07;;;;;;;9.34;92.52;102409.72;5091425;28;20027;-41
2021/12/13 03:04:25;;;;;;;14.05;8.18;;;;;;;9.33;92.28;102409.88;5092624;28;20028;-41
2021/12/13 03:06:56;;;;;;;15.65;9.07;;;;;;;9.35;92.53;102416.81;5090313;28;20136;-41
2021/12/13 03:09:25;;;;;;;16.65;9.55;;;;;;;9.35;92.04;102411.44;5086651;28;20025;-41
2021/12/13 03:11:51;;;;;;;19.92;9.85;;;;;;;9.36;91.99;102412.28;5072463;28;20070;-40
2021/12/13 03:14:29;;;;;;;19.98;9.70;;;;;;;9.33;91.94;102405.34;5079321;28;20098;-41
2021/12/13 03:17:00;;;;;;;;;;;;;;;9.33;92.20;102399.97;5092909;28;20028;-40
2021/12/13 03:19:38;;;;;;;16.70;9.60;;;;;;;9.35;91.73;102395.31;5086296;28;19913;-41
2021/12/13 03:22:31;;;;;;;14.05;9.52;;;;;;;9.36;91.69;102398.84;5072298;28;20025;-40
2021/12/13 03:25:17;;;;;;;17.75;10.05;;;;;;;9.37;91.39;102400.53;5072272;28;20535;-40
2021/12/13 03:27:49;;;;;;;15.80;10.25;;;;;;;9.36;91.64;102399.69;5071401;28;20021;-41
2021/12/13 03:30:22;;;;;;;16.45;10.30;;;;;;;9.36;91.45;102398.84;5071596;28;20056;-41
2021/12/13 03:33:00;;;;;;;17.13;10.48;;;;;;;9.40;91.52;102406.50;5081843;28;20073;-41
2021/12/13 03:35:51;;;;;;;15.05;9.23;;;;;;;9.40;91.03;102401.13;5071761;28;20032;-41
2021/12/13 03:38:20;;;;;;;16.00;10.40;;;;;;;9.36;91.05;102391.63;5072015;28;20111;-41
2021/12/13 03:40:47;;;;;;;21.58;10.40;;;;;;;9.36;91.14;102399.69;5070927;28;20476;-40
2021/12/13 03:43:20;;;;;;;16.85;9.85;;;;;;;9.37;90.65;102396.03;5057558;28;20490;-40
2021/12/13 03:45:52;;;;;;;15.68;9.38;;;;;;;9.34;90.54;102388.22;5075430;28;20052;-40
2021/12/13 03:48:20;;;;;;;20.75;9.23;;;;;;;9.36;90.94;102393.47;5075711;28;20035;-40
2021/12/13 03:50:47;;;;;;;;;;;;;;;9.38;90.45;102391.50;5094830;28;20134;-40
2021/12/13 03:53:18;;;;;;;20.35;9.82;;;;;;;9.37;89.97;102396.03;5095948;28;19915;-40
2021/12/13 03:55:46;;;;;;;17.17;8.93;;;;;;;9.37;90.21;102401.41;5096209;28;20521;-40
2021/12/13 03:58:15;;;;;;;20.13;8.93;;;;;;;9.35;89.61;102397.16;5097049;28;20028;-41
2021/12/13 04:00:47;;;;;;;15.88;8.98;;;;;;;9.36;89.50;102388.09;5093297;28;20036;-40
2021/12/13 04:03:16;;;;;;;17.63;8.48;;;;;;;9.35;90.17;102384.56;5095720;28;20032;-40
2021/12/13 04:05:43;;;;;;;16.52;8.93;;;;;;;9.36;89.50;102383.56;5095507;28;20028;-41
2021/12/13 04:08:11;;;;;;;13.38;8.65;;;;;;;9.36;89.58;102388.94;5095175;28;20028;-40
2021/12/13 04:10:38;;;;;;;;;;;;;;;9.37;89.25;102379.03;5092445;28;20094;-41
2021/12/13 04:13:11;;;;;;;18.15;8.00;;;;;;;9.36;89.09;102378.19;5073850;28;19912;-41
2021/12/13 04:21:28;;;;;;;11.05;6.97;;;;;;;9.38;88.79;102389.66;5074922;28;20089;-41
2021/12/13 04:23:57;;;;;;;13.13;7.32;;;;;;;9.36;89.18;102386.25;5075096;28;20036;-40
2021/12/13 04:26:26;;;;;;;15.77;7.60;;;;;;;9.38;88.53;102391.50;5074772;28;20017;-40
2021/12/13 04:28:54;;;;;;;12.73;7.10;;;;;;;9.35;88.53;102389.94;5083527;28;20410;-40
2021/12/13 04:31:23;;;;;;;14.27;7.28;;;;;;;9.37;88.52;102393.34;5095176;28;20040;-40
2021/12/13 04:33:52;;;;;;;10.80;6.68;;;;;;;9.36;88.22;102393.47;5094781;28;20035;-41
2021/12/13 04:36:23;;;;;;;12.15;6.95;;;;;;;9.37;87.90;102393.34;5092642;28;20024;-41
2021/12/13 04:39:09;;;;;;;10.80;6.32;;;;;;;9.35;88.03;102398.00;5086892;28;20040;-40
2021/12/13 04:41:43;;;;;;;13.40;6.38;;;;;;;9.36;87.75;102399.69;5073510;28;20021;-41
2021/12/13 04:44:16;;;;;;;8.15;5.55;;;;;;;9.40;86.77;102401.13;5094291;28;20039;-40
2021/12/13 04:46:44;;;;;;;15.70;6.13;;;;;;;9.42;86.88;102392.94;5092390;28;20032;-40
2021/12/13 04:49:13;;;;;;;10.10;5.18;;;;;;;9.44;86.38;102394.50;5090639;28;20039;-41
2021/12/13 04:51:47;;;;;;;9.95;5.18;;;;;;;9.46;86.37;102378.25;5094477;28;20028;-40
2021/12/13 04:54:14;;;;;;;15.68;5.78;;;;;;;9.45;86.24;102381.91;5052676;28;20131;-41
2021/12/13 04:56:41;;;;;;;13.27;5.13;;;;;;;9.47;86.52;102392.53;5054279;28;20024;-40
2021/12/13 04:59:07;;;;;;;9.23;5.00;;;;;;;9.47;86.08;102395.22;5071149;28;20472;-42
2021/12/13 05:01:34;;;;;;;12.02;5.03;;;;;;;9.45;85.93;102388.16;5083324;28;20331;-42
2021/12/13 05:04:03;;;;;;;5.97;4.70;;;;;;;9.48;85.75;102392.41;5094158;28;20111;-41
2021/12/13 05:06:33;;;;;;;8.55;4.57;;;;;;;9.45;85.92;102393.53;5091920;28;20031;-41
2021/12/13 05:09:01;;;;;;;10.15;5.18;;;;;;;9.45;86.36;102404.28;5075225;28;20377;-41
2021/12/13 05:11:31;;;;;;;;;;;;;;;9.44;86.40;102401.72;5074463;28;20058;-42
2021/12/13 05:13:59;;;;;;;9.13;4.95;;;;;;;9.42;86.04;102401.84;5073744;28;19912;-41
2021/12/13 05:16:36;;;;;;;10.07;5.07;;;;;;;9.43;85.87;102403.56;5073803;28;20037;-41
2021/12/13 05:19:05;;;;;;;12.77;5.85;;;;;;;9.42;86.04;102409.03;5084934;28;20127;-40
2021/12/13 05:21:38;;;;;;;10.25;4.70;;;;;;;9.43;86.61;102406.25;5073884;28;20029;-41
2021/12/13 05:24:09;;;;;;;9.32;5.20;;;;;;;9.45;86.10;102409.66;5073607;28;20081;-41
2021/12/13 05:26:38;;;;;;;9.23;5.15;;;;;;;9.44;85.96;102412.47;5073438;28;20021;-41
2021/12/13 05:29:06;;;;;;;8.30;4.80;;;;;;;9.43;86.28;102400.88;5089345;28;20020;-41
2021/12/13 05:31:32;;;;;;;14.20;5.03;;;;;;;9.42;86.05;102404.53;5093711;28;20054;-41
2021/12/13 05:34:04;;;;;;;12.25;5.00;;;;;;;9.40;86.25;102398.47;5082216;28;20129;-41
2021/12/13 05:36:32;;;;;;;13.10;4.93;;;;;;;9.40;85.55;102395.75;5093682;28;20028;-41
2021/12/13 05:39:16;;;;;;;14.52;5.20;;;;;;;9.38;85.51;102403.09;5077038;28;20028;-41
2021/12/13 05:41:52;;;;;;;11.63;4.43;;;;;;;9.38;85.40;102399.56;5071994;28;20047;-41
2021/12/13 05:44:28;;;;;;;12.25;5.30;;;;;;;9.38;85.49;102403.09;5085355;28;20040;-41
2021/12/13 05:46:54;;;;;;;14.75;4.82;;;;;;;9.38;85.19;102402.25;5074666;28;20028;-42
2021/12/13 05:49:27;;;;;;;10.57;4.85;;;;;;;9.40;85.90;102408.31;5082287;28;20102;-41
2021/12/13 05:52:09;;;;;;;12.27;4.63;;;;;;;9.38;85.49;102411.16;5093301;28;20091;-41
2021/12/13 05:54:42;;;;;;;12.85;4.72;;;;;;;9.38;85.04;102407.63;5076939;28;20107;-41
2021/12/13 05:57:15;;;;;;;8.88;4.25;;;;;;;9.40;84.82;102406.50;5077582;28;20070;-41
2021/12/13 06:00:00;;;;;;;6.72;4.55;;;;;;;9.38;84.92;102408.47;5082883;28;20029;-41
2021/12/13 06:02:58;;;;;;;10.38;4.18;;;;;;;9.44;83.97;102407.09;5059424;28;20429;-41
2021/12/13 06:05:51;;;;;;;12.48;4.43;;;;;;;9.43;84.28;102414.31;5082472;28;20127;-41
2021/12/13 06:08:28;;;;;;;8.23;4.50;;;;;;;9.42;84.66;102409.91;5070060;28;20036;-41
2021/12/13 06:11:09;;;;;;;9.68;4.32;;;;;;;9.41;84.33;102413.56;5072698;28;20111;-41
2021/12/13 06:13:44;;;;;;;12.80;4.15;;;;;;;9.43;83.66;102413.47;5072032;28;20115;-44
2021/12/13 06:16:11;;;;;;;7.35;4.30;;;;;;;9.45;83.75;102415.03;5082825;28;20112;-41
2021/12/13 06:18:44;;;;;;;6.78;4.25;;;;;;;9.45;84.10;102425.78;5078256;28;20032;-41
2021/12/13 06:21:34;;;;;;;11.85;4.00;;;;;;;9.43;83.97;102419.69;5080986;28;20562;-41
2021/12/13 06:23:59;;;;;;;11.02;4.40;;;;;;;9.44;84.40;102425.91;5069442;28;20033;-41
2021/12/13 06:26:28;;;;;;;10.82;5.28;;;;;;;9.44;83.90;102428.59;5082633;28;20058;-41
2021/12/13 06:28:57;;;;;;;11.57;4.80;;;;;;;9.41;84.50;102424.31;5075027;28;20526;-41
2021/12/13 06:31:23;;;;;;;10.85;4.95;;;;;;;9.39;85.03;102409.31;5060041;28;20059;-41
2021/12/13 06:34:13;;;;;;;10.07;5.22;;;;;;;9.37;85.51;102412.16;5052025;28;20028;-41
2021/12/13 06:36:47;;;;;;;15.25;6.38;;;;;;;9.36;85.81;102414.97;5064922;28;20396;-41
2021/12/13 06:39:26;;;;;;;12.52;5.72;;;;;;;9.28;86.14;102407.59;5069129;28;20055;-41
2021/12/13 06:42:00;;;;;;;10.63;6.22;;;;;;;9.28;85.76;102414.81;5052346;28;20499;-40
2021/12/13 06:44:35;;;;;;;9.63;6.05;;;;;;;9.27;86.63;102413.97;5052000;28;20171;-41
2021/12/13 06:47:02;;;;;;;10.32;6.13;;;;;;;9.30;86.23;102424.44;5052071;28;20059;-42
2021/12/13 06:49:49;;;;;;;14.32;7.25;;;;;;;9.28;85.87;102428.25;5051764;28;20384;-42
2021/12/13 06:52:14;;;;;;;12.02;6.07;;;;;;;9.28;86.15;102428.25;5051568;28;20032;-42
2021/12/13 06:54:41;;;;;;;11.63;6.57;;;;;;;9.28;85.54;102436.28;5050651;28;20427;-42
2021/12/13 06:57:08;;;;;;;12.77;7.35;;;;;;;9.28;85.72;102423.72;5051986;28;20079;-42
2021/12/13 06:59:56;;;;;;;16.30;7.13;;;;;;;9.31;86.44;102431.50;5051825;28;20031;-42
2021/12/13 07:02:25;;;;;;;13.02;6.63;;;;;;;9.27;85.56;102419.34;5051501;28;20041;-41
2021/12/13 07:04:50;;;;;;;10.48;6.70;;;;;;;9.28;85.72;102434.47;5059914;28;20048;-42
2021/12/13 07:07:16;;;;;;;12.70;7.10;;;;;;;9.28;85.33;102433.59;5081291;28;20492;-41
2021/12/13 07:09:50;;;;;;;14.57;7.35;;;;;;;9.27;85.68;102438.13;5065334;28;20029;-42
2021/12/13 07:12:16;;;;;;;13.13;7.00;;;;;;;9.25;86.05;102440.09;5071224;28;20029;-41
2021/12/13 07:14:43;;;;;;;13.20;7.03;;;;;;;9.25;85.71;102450.00;5066640;28;20025;-41
2021/12/13 07:17:17;;;;;;;13.30;7.25;;;;;;;9.25;86.02;102455.38;5050919;28;20124;-41
2021/12/13 07:19:48;;;;;;;15.90;8.23;;;;;;;9.26;85.63;102452.53;5055067;28;20473;-41
2021/12/13 07:22:26;;;;;;;13.75;7.78;;;;;;;9.23;86.35;102461.72;5053982;28;20028;-41
2021/12/13 07:25:03;;;;;;;18.25;7.78;;;;;;;9.23;86.42;102468.94;5055609;28;20029;-42
2021/12/13 07:27:31;;;;;;;16.88;8.57;;;;;;;9.23;86.45;102463.56;5055534;28;20408;-41
2021/12/13 07:30:05;;;;;;;13.07;7.75;;;;;;;9.26;86.04;102463.28;5060278;28;20107;-40
2021/12/13 07:32:36;;;;;;;15.88;8.38;;;;;;;9.22;86.04;102457.34;5068617;28;20024;-42
2021/12/13 07:35:16;;;;;;;15.88;8.73;;;;;;;9.23;86.14;102461.72;5063422;28;20059;-42
2021/12/13 07:38:05;;;;;;;15.55;8.57;;;;;;;9.27;86.09;102475.75;5063201;28;20033;-42
2021/12/13 07:40:41;;;;;;;18.80;9.38;;;;;;;9.23;86.47;102471.63;5062847;28;20111;-42
2021/12/13 07:43:06;;;;;;;16.67;8.95;;;;;;;9.24;86.57;102473.31;5054326;28;20028;-42
2021/12/13 07:45:45;;;;;;;16.15;9.77;;;;;;;9.26;86.17;102475.88;5069534;28;20048;-43
2021/12/13 07:48:14;;;;;;;18.20;8.98;;;;;;;9.23;86.52;102485.03;5055420;28;20488;-42
2021/12/13 07:50:41;;;;;;;21.30;9.35;;;;;;;9.20;86.06;102485.31;5074465;28;20043;-42
2021/12/13 07:53:13;;;;;;;16.65;10.40;;;;;;;9.19;86.55;102481.78;5066990;28;20484;-42
2021/12/13 07:55:46;;;;;;;20.60;10.27;;;;;;;9.18;86.71;102479.22;5059020;28;20038;-42
2021/12/13 07:58:15;;;;;;;17.00;9.48;;;;;;;9.16;87.05;102478.50;5076524;28;20085;-42
2021/12/13 08:00:40;;;;;;;18.20;10.30;;;;;;;9.14;86.92;102475.97;5062635;28;20029;-42
2021/12/13 08:03:15;;;;;;;21.23;11.15;;;;;;;9.17;87.22;102469.47;5062622;28;20423;-42
2021/12/13 08:05:45;;;;;;;22.35;10.88;;;;;;;9.15;87.03;102469.59;5064658;28;20131;-41
2021/12/13 08:08:24;;;;;;;20.02;10.18;;;;;;;9.13;86.87;102473.41;5063519;28;20036;-43
2021/12/13 08:10:54;;;;;;;21.17;10.80;;;;;;;9.13;86.77;102470.72;5069103;28;20078;-43
2021/12/13 08:13:25;;;;;;;17.27;10.48;;;;;;;9.12;86.70;102472.53;5071426;28;20031;-42
2021/12/13 08:15:54;;;;;;;17.90;10.00;;;;;;;9.08;87.15;102479.16;5053917;28;20473;-41
2021/12/13 08:18:24;;;;;;;17.77;10.63;;;;;;;9.10;86.99;102479.03;5050824;28;20392;-42
2021/12/13 08:20:54;;;;;;;25.58;10.88;;;;;;;9.08;86.88;102472.94;5055575;28;20025;-42
2021/12/13 08:23:35;;;;;;;28.35;11.63;;;;;;;9.06;87.14;102477.59;5059050;28;20485;-42
2021/12/13 08:26:07;;;;;;;19.42;10.57;;;;;;;9.10;86.99;102481.72;5080613;28;20024;-42
2021/12/13 08:28:42;;;;;;;21.75;11.60;;;;;;;9.07;87.49;102482.84;5074416;28;20480;-42
2021/12/13 08:31:10;;;;;;;26.80;11.32;;;;;;;9.07;87.48;102479.31;5071627;28;20020;-41
2021/12/13 08:33:48;;;;;;;22.27;11.13;;;;;;;9.07;87.13;102484.69;5070702;28;20025;-42
2021/12/13 08:36:36;;;;;;;20.55;10.60;;;;;;;9.07;87.28;102498.09;5074514;28;20059;-42
2021/12/13 08:39:07;;;;;;;18.40;10.07;;;;;;;9.10;86.97;102495.16;5070762;28;20032;-42
2021/12/13 08:41:38;;;;;;;22.48;11.50;;;;;;;9.12;87.33;102493.19;5063649;28;20025;-43
2021/12/13 08:44:19;;;;;;;18.13;9.85;;;;;;;9.13;86.69;102494.88;5070040;28;20041;-42
2021/12/13 08:46:47;;;;;;;22.23;10.38;;;;;;;9.15;86.77;102495.59;5074836;28;20035;-40
2021/12/13 08:49:27;;;;;;;20.92;10.52;;;;;;;9.17;86.65;102499.03;5073924;28;20075;-41
2021/12/13 08:52:16;;;;;;;21.95;11.93;;;;;;;9.19;86.54;102505.97;5066344;28;20101;-41
2021/12/13 08:54:56;;;;;;;22.05;10.80;;;;;;;9.23;86.66;102509.22;5054038;28;20029;-43
2021/12/13 08:57:41;;;;;;;19.42;10.45;;;;;;;9.22;86.53;102515.59;5054125;28;20060;-42
2021/12/13 09:00:12;;;;;;;22.65;10.88;;;;;;;9.23;86.67;102518.13;5065495;28;20028;-41
2021/12/13 09:02:41;;;;;;;29.77;11.27;;;;;;;9.22;86.53;102518.28;5070262;28;20102;-42
2021/12/13 09:05:14;;;;;;;22.00;10.68;;;;;;;9.25;86.36;102522.53;5055710;28;20028;-42
2021/12/13 09:08:04;;;;;;;20.40;10.43;;;;;;;9.32;86.20;102521.88;5059502;28;20039;-43
2021/12/13 09:10:48;;;;;;;23.58;10.30;;;;;;;9.36;85.74;102533.19;5072614;28;20114;-42
2021/12/13 09:13:16;;;;;;;21.85;10.50;;;;;;;9.34;85.68;102540.53;5073193;28;20028;-43
2021/12/13 09:15:43;;;;;;;22.33;10.13;;;;;;;9.34;85.75;102549.44;5068361;28;20040;-42
2021/12/13 09:18:09;;;;;;;22.10;10.18;;;;;;;9.35;85.69;102551.16;5053398;28;20034;-43
2021/12/13 09:20:42;;;;;;;19.55;10.05;;;;;;;9.37;85.38;102557.28;5060029;28;20028;-43
2021/12/13 09:23:13;;;;;;;17.63;9.77;;;;;;;9.37;85.82;102556.41;5087137;28;20028;-41
2021/12/13 09:25:50;;;;;;;21.42;10.88;;;;;;;9.38;85.56;102558.97;5086943;28;20502;-41
2021/12/13 09:28:27;;;;;;;20.48;9.98;;;;;;;9.42;85.24;102552.31;5073058;28;20039;-45
2021/12/13 09:31:14;;;;;;;24.50;11.35;;;;;;;9.43;85.65;102554.03;5064129;28;20037;-45
2021/12/13 09:33:44;;;;;;;18.15;10.68;;;;;;;9.45;85.26;102565.53;5060255;28;20039;-45
2021/12/13 09:36:34;;;;;;;20.25;9.73;;;;;;;9.50;85.15;102572.31;5072675;28;20029;-44
2021/12/13 09:39:17;;;;;;;16.08;9.52;;;;;;;9.52;84.93;102581.09;5069701;28;20040;-46
2021/12/13 09:42:13;;;;;;;22.33;10.43;;;;;;;9.56;84.79;102585.25;5074731;28;20051;-44
2021/12/13 09:44:54;;;;;;;22.27;10.10;;;;;;;9.55;84.61;102586.22;5071777;28;20040;-44
2021/12/13 09:47:24;;;;;;;21.27;10.85;;;;;;;9.48;84.38;102575.16;5078609;28;20037;-44
2021/12/13 09:49:55;;;;;;;22.27;10.18;;;;;;;9.54;84.66;102589.91;5071469;28;20091;-45
2021/12/13 09:52:41;;;;;;;21.67;9.23;;;;;;;9.59;84.51;102576.91;5072396;28;20051;-44
2021/12/13 09:55:22;;;;;;;18.50;9.65;;;;;;;9.54;84.22;102568.41;5077229;28;20098;-45
2021/12/13 09:58:04;;;;;;;24.15;9.98;;;;;;;9.56;84.24;102566.44;5068363;28;20056;-44
2021/12/13 10:00:53;;;;;;;20.05;10.85;;;;;;;9.58;84.38;102575.19;5061931;28;20020;-44
2021/12/13 10:03:28;;;;;;;17.20;9.77;;;;;;;9.60;83.88;102567.84;5080580;28;20058;-45
2021/12/13 10:05:57;;;;;;;23.88;9.85;;;;;;;9.59;83.80;102579.59;5070009;28;20403;-45
2021/12/13 10:08:27;;;;;;;22.40;10.40;;;;;;;9.62;84.20;102577.47;5062272;28;20071;-45
2021/12/13 10:11:11;;;;;;;24.67;10.32;;;;;;;9.62;84.04;102579.31;5071452;28;20094;-45
2021/12/13 10:13:38;;;;;;;21.42;11.15;;;;;;;9.65;84.31;102584.44;5061440;28;20036;-46
2021/12/13 10:16:10;;;;;;;22.17;9.67;;;;;;;9.70;83.76;102579.50;5072509;28;20035;-45
2021/12/13 10:18:39;;;;;;;25.75;9.95;;;;;;;9.74;83.96;102580.09;5072277;28;20583;-46
2021/12/13 10:21:16;;;;;;;18.45;10.38;;;;;;;9.73;83.48;102583.78;5069518;28;20024;-47
2021/12/13 10:23:47;;;;;;;25.98;11.07;;;;;;;9.78;83.76;102579.69;5062913;28;20040;-45
2021/12/13 10:26:15;;;;;;;17.98;9.93;;;;;;;9.74;84.38;102586.34;5064155;28;20028;-47
2021/12/13 10:28:52;;;;;;;21.80;11.00;;;;;;;9.71;83.82;102575.81;5068918;28;20050;-47
2021/12/13 10:31:23;;;;;;;21.15;10.75;;;;;;;9.71;83.83;102575.81;5053260;28;20037;-44
2021/12/13 10:33:48;;;;;;;27.98;12.60;;;;;;;9.73;84.20;102578.41;5062200;28;20042;-48
2021/12/13 10:36:14;;;;;;;20.70;11.23;;;;;;;9.80;83.61;102579.56;5065549;28;20118;-46
2021/12/13 10:38:44;;;;;;;24.50;12.32;;;;;;;9.79;84.39;102589.44;5069680;28;20492;-47
2021/12/13 10:41:21;;;;;;;22.55;11.27;;;;;;;9.80;84.55;102588.47;5092403;28;20024;-45
2021/12/13 10:43:51;;;;;;;22.95;11.80;;;;;;;9.80;84.39;102582.25;5090538;28;20129;-44
2021/12/13 10:46:23;;;;;;;33.15;12.30;;;;;;;9.76;84.59;102576.28;5082240;28;20067;-46
2021/12/13 10:48:52;;;;;;;25.67;12.70;;;;;;;9.70;84.43;102578.66;5077091;28;20074;-45
2021/12/13 10:51:22;;;;;;;23.27;12.30;;;;;;;9.72;84.72;102577.53;5071718;28;20105;-44
2021/12/13 10:53:49;;;;;;;22.73;12.43;;;;;;;9.73;85.00;102581.94;5071188;28;20025;-45
2021/12/13 10:56:32;;;;;;;28.85;13.80;;;;;;;9.70;84.75;102575.97;5062625;28;20029;-46
2021/12/13 10:58:59;;;;;;;24.90;13.55;;;;;;;9.71;85.24;102575.81;5066465;28;20086;-45
2021/12/13 11:01:28;;;;;;;27.05;12.77;;;;;;;9.67;84.99;102577.94;5054503;28;20032;-45
2021/12/13 11:03:56;;;;;;;30.48;14.30;;;;;;;9.64;85.08;102574.69;5058800;28;20016;-46
2021/12/13 11:06:22;;;;;;;;;;;;;;;9.73;85.68;102576.56;5069320;28;20043;-49
2021/12/13 11:08:48;;;;;;;29.63;13.93;;;;;;;9.76;85.26;102570.91;5052041;28;19916;-46
2021/12/13 11:11:34;;;;;;;38.20;14.80;;;;;;;9.77;85.54;102564.56;5052019;28;20071;-45
2021/12/13 11:14:03;;;;;;;29.90;13.27;;;;;;;9.77;85.05;102564.56;5070974;28;20037;-49
2021/12/13 11:16:34;;;;;;;31.88;15.52;;;;;;;9.78;85.12;102566.25;5070228;28;20021;-46
2021/12/13 11:19:00;;;;;;;29.73;14.18;;;;;;;9.80;85.28;102564.28;5052091;28;20427;-47
2021/12/13 11:21:33;;;;;;;32.70;15.02;;;;;;;9.83;84.62;102569.38;5067644;28;20103;-45
2021/12/13 11:23:59;;;;;;;26.45;13.70;;;;;;;9.80;84.69;102564.28;5057845;28;20028;-46
2021/12/13 11:26:29;;;;;;;31.50;13.60;;;;;;;9.81;84.99;102565.97;5051444;28;20405;-46
2021/12/13 11:28:56;;;;;;;25.58;13.05;;;;;;;9.85;84.64;102562.03;5051734;28;20033;-46
2021/12/13 11:31:24;;;;;;;31.15;14.35;;;;;;;9.92;84.40;102561.50;5050361;28;20056;-47
2021/12/13 11:33:59;;;;;;;35.50;14.82;;;;;;;9.87;84.22;102564.56;5050223;28;20107;-46
2021/12/13 11:36:43;;;;;;;27.40;12.90;;;;;;;9.86;83.81;102569.09;5051599;28;20404;-46
2021/12/13 11:39:27;;;;;;;26.48;13.75;;;;;;;9.91;83.88;102570.56;5053945;28;20037;-44
2021/12/13 11:42:20;;;;;;;33.80;14.10;;;;;;;9.82;84.20;102567.69;5069874;28;20075;-44
2021/12/13 11:44:57;;;;;;;27.38;14.27;;;;;;;9.80;84.11;102574.19;5071135;28;20133;-46
2021/12/13 11:47:43;;;;;;;28.27;13.93;;;;;;;9.80;84.70;102566.97;5071292;28;20040;-44
2021/12/13 11:50:36;;;;;;;23.20;13.07;;;;;;;9.91;84.49;102570.56;5070222;28;20068;-45
2021/12/13 11:53:24;;;;;;;28.30;13.88;;;;;;;9.93;84.30;102571.28;5069959;28;20028;-44
2021/12/13 11:56:30;;;;;;;30.33;14.10;;;;;;;9.96;84.27;102557.56;5071091;28;20021;-46
2021/12/13 11:59:03;;;;;;;26.67;13.52;;;;;;;9.89;83.92;102566.16;5075209;28;20093;-44
2021/12/13 12:02:08;;;;;;;29.23;13.82;;;;;;;9.95;83.97;102566.59;5077858;28;20395;-46
2021/12/13 12:05:05;;;;;;;27.50;13.57;;;;;;;9.86;83.93;102563.72;5071620;28;20417;-45
2021/12/13 12:07:49;;;;;;;;;;;;;;;9.82;83.79;102556.06;5075146;28;20069;-45